OICK  Khoram Abad Airport

Add Bookmark

Iran

Status IATA
Operational KHD
Latitude Longitude
33° 26' 7" N 48° 16' 58" E
33.435398 48.282902
Local (DST + 5) UTC (GMT + 4)
Nov 29, 2014 04:34 Nov 29, 2014 01:04
Sunrise-Sunset Local UTC
Begin Civil Twilight 06:32 03:02
Sunrise 06:59 03:29
Sunset 05:10 13:40
End Civil Twilight 05:37 14:07

Current Weather

METAR Observed VFR
OICK 281330Z 12004KT 9999 FEW035CB SCT040 09/04 Q1020 Fri, Nov 28, 2014 @ 13:30 UTC
(11 Hours, 34 Minutes ago)
Visual Flight Rules
Wind Visibility Clouds Conditions
120° at 4 knots (7 kph) 10 km or more
  • Few at 3,500' AGL
  • Scattered at 4,000' AGL
  • No significant weather
Temperatures Readings Precipitation
Current Temp 9°C (48°F)
Dewpoint 4°C (39°F)
Humidity 71%
Altimeter 30.12"Hg
Sea Level Pressure 1020mb
Field Elevation 3789.37'
None Recorded

24 Hour Weather History

Loading
-

24 Hour Weather Graphs

Loading
-

CheckWX.com is intended as a tool to help pilots better visualize weather data. It is not intended as a substitute for an official weather briefing obtained from a Flight Service Station. CheckWX.com does not meet the FAA requirements for an official pre-flight weather briefing. Therefore, it's important that pilots still call and obtain an official FSS pre-flight weather briefing.